createdAt,value
2023-03-26T00:01:15.818Z,14.75
2023-03-26T00:04:22.045Z,18.08
2023-03-26T00:07:28.310Z,19.55
2023-03-26T00:10:33.852Z,19.05
2023-03-26T00:13:40.996Z,16.50
2023-03-26T00:16:47.868Z,23.13
2023-03-26T00:19:53.831Z,21.85
2023-03-26T00:23:02.137Z,16.55
2023-03-26T00:26:11.422Z,17.35
2023-03-26T00:29:17.297Z,18.55
2023-03-26T00:32:28.369Z,22.55
2023-03-26T00:35:37.407Z,16.57
2023-03-26T00:38:44.268Z,21.40
2023-03-26T00:41:54.843Z,19.67
2023-03-26T00:45:00.709Z,20.85
2023-03-26T00:48:06.247Z,15.77
2023-03-26T00:51:15.630Z,19.92
2023-03-26T00:54:21.649Z,18.75
2023-03-26T00:57:35.841Z,19.70
2023-03-26T01:00:57.720Z,19.50
2023-03-26T01:04:28.601Z,21.73
2023-03-26T01:07:35.462Z,22.70
2023-03-26T01:10:42.932Z,20.65
2023-03-26T01:13:56.665Z,22.08
2023-03-26T01:17:04.643Z,22.35
2023-03-26T01:20:20.578Z,20.75
2023-03-26T01:23:35.645Z,22.08
2023-03-26T01:26:59.510Z,23.73
2023-03-26T01:30:17.349Z,19.27
2023-03-26T01:33:34.399Z,21.23
2023-03-26T01:36:49.206Z,18.60
2023-03-26T01:39:58.451Z,22.23
2023-03-26T01:43:29.052Z,24.08
2023-03-26T01:46:38.483Z,18.95
2023-03-26T01:49:45.412Z,22.27
2023-03-26T01:52:51.020Z,25.00
2023-03-26T01:56:29.646Z,22.70
2023-03-26T01:59:47.961Z,24.90
2023-03-26T02:03:04.696Z,23.90
2023-03-26T02:06:37.909Z,22.63
2023-03-26T02:09:48.433Z,24.67
2023-03-26T02:12:54.565Z,27.17
2023-03-26T02:16:03.270Z,26.13
2023-03-26T02:19:16.117Z,21.02
2023-03-26T02:22:22.594Z,20.63
2023-03-26T02:25:28.625Z,20.70
2023-03-26T02:28:37.842Z,20.85
2023-03-26T02:31:43.635Z,23.50
2023-03-26T02:34:51.595Z,20.55
2023-03-26T02:37:57.574Z,24.77
2023-03-26T02:41:03.575Z,20.02
2023-03-26T02:44:23.698Z,21.75
2023-03-26T02:47:37.903Z,23.48
2023-03-26T02:51:04.631Z,26.00
2023-03-26T02:54:37.570Z,19.73
2023-03-26T02:58:03.831Z,21.08
2023-03-26T03:01:18.715Z,21.08
2023-03-26T03:04:32.588Z,20.17
2023-03-26T03:07:38.934Z,21.88
2023-03-26T03:11:03.637Z,21.65
2023-03-26T03:14:17.354Z,23.58
2023-03-26T03:17:22.842Z,23.50
2023-03-26T03:20:30.631Z,23.38
2023-03-26T03:23:36.745Z,20.52
2023-03-26T03:26:50.584Z,21.48
2023-03-26T03:30:12.871Z,19.55
2023-03-26T03:33:24.324Z,18.92
2023-03-26T03:36:30.658Z,18.35
2023-03-26T03:39:43.330Z,19.90
2023-03-26T03:42:51.248Z,18.27
2023-03-26T03:46:06.366Z,17.70
2023-03-26T03:49:41.650Z,19.00
2023-03-26T03:52:47.037Z,19.95
2023-03-26T03:55:58.026Z,17.95
2023-03-26T03:59:17.868Z,16.50
2023-03-26T04:02:30.637Z,17.83
2023-03-26T04:05:40.902Z,21.83
2023-03-26T04:08:47.004Z,18.50
2023-03-26T04:11:52.652Z,18.48
2023-03-26T04:15:24.214Z,21.70
2023-03-26T04:18:32.725Z,19.27
2023-03-26T04:21:45.490Z,24.35
2023-03-26T04:24:54.739Z,22.70
2023-03-26T04:28:06.948Z,22.92
2023-03-26T04:31:31.528Z,17.53
2023-03-26T04:34:39.097Z,20.10
2023-03-26T04:37:49.089Z,19.38
2023-03-26T04:41:12.855Z,20.50
2023-03-26T04:44:44.864Z,24.55
2023-03-26T04:47:52.307Z,22.90
2023-03-26T04:50:58.378Z,25.90
2023-03-26T04:54:03.474Z,24.42
2023-03-26T04:57:27.568Z,22.05
2023-03-26T05:00:43.622Z,25.25
2023-03-26T05:03:49.021Z,22.92
2023-03-26T05:06:59.794Z,23.63
2023-03-26T05:10:22.164Z,22.85
2023-03-26T05:13:35.773Z,31.15
2023-03-26T05:16:48.328Z,27.23
2023-03-26T05:19:53.968Z,26.77
2023-03-26T05:22:59.474Z,26.67
2023-03-26T05:26:10.302Z,25.75
2023-03-26T05:29:18.029Z,27.42
2023-03-26T05:32:31.458Z,30.52
2023-03-26T05:35:37.048Z,30.13
2023-03-26T05:38:49.974Z,28.83
2023-03-26T05:42:22.112Z,27.75
2023-03-26T05:45:41.463Z,27.60
2023-03-26T05:48:55.869Z,26.98
2023-03-26T05:52:01.562Z,28.88
2023-03-26T05:55:25.955Z,29.58
2023-03-26T05:59:01.397Z,31.58
2023-03-26T06:02:07.571Z,32.60
2023-03-26T06:05:37.753Z,32.72
2023-03-26T06:09:02.031Z,31.27
2023-03-26T06:12:11.149Z,30.30
2023-03-26T06:15:18.156Z,39.15
2023-03-26T06:18:56.358Z,28.70
2023-03-26T06:22:23.141Z,26.85
2023-03-26T06:25:50.056Z,30.35
2023-03-26T06:29:18.890Z,29.02
2023-03-26T06:32:40.642Z,31.83
2023-03-26T06:35:54.087Z,31.10
2023-03-26T06:38:59.492Z,30.65
2023-03-26T06:42:04.969Z,30.98
2023-03-26T06:45:40.084Z,28.45
2023-03-26T06:49:04.259Z,26.85
2023-03-26T06:52:32.108Z,22.55
2023-03-26T06:56:13.416Z,24.15
2023-03-26T06:59:28.446Z,21.70
2023-03-26T07:02:52.971Z,22.45
2023-03-26T07:06:17.504Z,28.60
2023-03-26T07:09:41.424Z,24.38
2023-03-26T07:13:05.584Z,18.33
2023-03-26T07:16:29.991Z,19.50
2023-03-26T07:19:46.930Z,19.17
2023-03-26T07:22:52.716Z,16.52
2023-03-26T07:26:49.204Z,15.23
2023-03-26T07:30:19.616Z,18.27
2023-03-26T07:33:48.970Z,14.27
2023-03-26T07:37:27.186Z,16.35
2023-03-26T07:41:03.284Z,16.75
2023-03-26T07:44:41.973Z,16.55
2023-03-26T07:48:20.464Z,12.52
2023-03-26T07:51:49.022Z,14.85
2023-03-26T07:55:16.272Z,15.00
2023-03-26T07:59:20.695Z,11.73
2023-03-26T08:02:56.843Z,12.73
2023-03-26T08:06:34.670Z,14.80
2023-03-26T08:10:23.854Z,16.90
2023-03-26T08:14:16.558Z,17.55
2023-03-26T08:17:38.248Z,14.45
2023-03-26T08:20:50.536Z,16.05
2023-03-26T08:24:19.112Z,15.57
2023-03-26T08:28:02.722Z,14.18
2023-03-26T08:31:12.055Z,13.25
2023-03-26T08:34:35.608Z,7.82
2023-03-26T08:37:41.515Z,9.70
2023-03-26T08:41:12.396Z,9.82
2023-03-26T08:44:35.692Z,10.25
2023-03-26T08:48:19.220Z,10.35
2023-03-26T08:51:50.900Z,11.52
2023-03-26T08:55:10.807Z,12.00
2023-03-26T08:58:38.284Z,14.25
2023-03-26T09:01:59.189Z,9.77
2023-03-26T09:05:31.494Z,10.88
2023-03-26T09:08:54.152Z,8.15
2023-03-26T09:12:33.789Z,10.05
2023-03-26T09:16:15.574Z,11.05
2023-03-26T09:23:06.354Z,28.73
2023-03-26T09:26:28.275Z,14.25
2023-03-26T09:29:52.166Z,12.75
2023-03-26T09:33:21.984Z,10.60
2023-03-26T09:36:50.233Z,8.35
2023-03-26T09:40:14.551Z,7.22
2023-03-26T09:43:41.616Z,6.88
2023-03-26T09:46:52.953Z,8.40
2023-03-26T09:50:16.461Z,9.43
2023-03-26T09:53:40.672Z,6.43
2023-03-26T09:57:13.055Z,11.55
2023-03-26T10:00:17.893Z,9.07
2023-03-26T10:03:59.951Z,8.80
2023-03-26T10:07:30.621Z,9.57
2023-03-26T10:11:02.415Z,9.48
2023-03-26T10:14:17.970Z,10.20
2023-03-26T10:18:00.993Z,6.03
2023-03-26T10:21:33.936Z,8.32
2023-03-26T10:24:57.765Z,7.57
2023-03-26T10:28:49.529Z,7.60
2023-03-26T10:32:22.617Z,13.05
2023-03-26T10:36:00.124Z,9.13
2023-03-26T10:39:36.019Z,7.38
2023-03-26T10:42:55.260Z,12.60
2023-03-26T10:46:22.446Z,9.75
2023-03-26T10:49:40.249Z,9.95
2023-03-26T10:53:41.712Z,8.02
2023-03-26T10:56:51.797Z,10.60
2023-03-26T11:00:15.983Z,10.38
2023-03-26T11:03:44.199Z,14.95
2023-03-26T11:07:16.799Z,10.35
2023-03-26T11:10:55.683Z,10.43
2023-03-26T11:14:34.197Z,10.43
2023-03-26T11:17:46.744Z,9.68
2023-03-26T11:21:19.834Z,11.93
2023-03-26T11:24:58.641Z,11.02
2023-03-26T11:28:28.081Z,11.68
2023-03-26T11:31:54.958Z,10.18
2023-03-26T11:35:19.249Z,9.50
2023-03-26T11:38:48.524Z,11.48
2023-03-26T11:42:22.146Z,13.70
2023-03-26T11:45:32.248Z,13.05
2023-03-26T11:48:44.696Z,9.93
2023-03-26T11:51:50.503Z,15.05
2023-03-26T11:54:59.916Z,8.88
2023-03-26T11:58:12.590Z,11.05
2023-03-26T12:01:30.701Z,8.85
2023-03-26T12:04:41.963Z,12.82
2023-03-26T12:07:54.472Z,12.38
2023-03-26T12:11:11.051Z,11.55
2023-03-26T12:14:24.607Z,9.35
2023-03-26T12:17:36.073Z,8.80
2023-03-26T12:20:43.114Z,11.30
2023-03-26T12:24:05.077Z,10.75
2023-03-26T12:27:22.022Z,7.82
2023-03-26T12:30:31.417Z,10.45
2023-03-26T12:33:39.287Z,23.13
2023-03-26T12:36:55.929Z,9.30
2023-03-26T12:40:30.378Z,9.40
2023-03-26T12:44:50.880Z,15.35
2023-03-26T12:47:58.583Z,7.55
2023-03-26T12:51:43.507Z,8.60
2023-03-26T12:55:27.161Z,11.97
2023-03-26T12:59:05.655Z,12.75
2023-03-26T13:02:46.852Z,9.18
2023-03-26T13:06:19.605Z,12.35
2023-03-26T13:10:02.184Z,6.20
2023-03-26T13:13:28.707Z,9.00
2023-03-26T13:16:58.059Z,7.38
2023-03-26T13:20:12.641Z,12.20
2023-03-26T13:23:36.537Z,11.40
2023-03-26T13:26:50.050Z,7.47
2023-03-26T13:30:14.872Z,10.40
2023-03-26T13:33:39.422Z,8.75
2023-03-26T13:36:53.795Z,8.20
2023-03-26T13:40:22.558Z,9.77
2023-03-26T13:43:45.904Z,6.85
2023-03-26T13:47:03.148Z,8.95
2023-03-26T13:50:22.345Z,10.55
2023-03-26T13:53:58.700Z,11.32
2023-03-26T13:57:12.837Z,7.50
2023-03-26T14:00:33.283Z,10.25
2023-03-26T14:04:03.640Z,8.65
2023-03-26T14:07:26.607Z,8.43
2023-03-26T14:10:43.679Z,5.40
2023-03-26T14:14:04.419Z,14.32
2023-03-26T14:17:28.429Z,9.15
2023-03-26T14:20:51.770Z,8.18
2023-03-26T14:24:35.103Z,9.57
2023-03-26T14:28:04.900Z,8.85
2023-03-26T14:31:10.396Z,8.70
2023-03-26T14:34:42.939Z,64.15
2023-03-26T14:38:30.176Z,19.35
2023-03-26T14:42:01.692Z,10.70
2023-03-26T14:45:48.112Z,12.40
2023-03-26T14:49:05.558Z,8.60
2023-03-26T14:52:32.037Z,7.78
2023-03-26T14:55:58.068Z,10.95
2023-03-26T14:59:32.242Z,11.75
2023-03-26T15:03:11.314Z,10.07
2023-03-26T15:06:38.310Z,10.48
2023-03-26T15:10:28.105Z,10.68
2023-03-26T15:14:11.294Z,12.15
2023-03-26T15:17:44.082Z,6.00
2023-03-26T15:20:49.644Z,9.43
2023-03-26T15:24:43.594Z,17.88
2023-03-26T15:28:10.806Z,17.95
2023-03-26T15:31:53.392Z,11.35
2023-03-26T15:35:02.998Z,11.95
2023-03-26T15:38:31.825Z,13.45
2023-03-26T15:42:07.413Z,15.90
2023-03-26T15:45:35.673Z,13.85
2023-03-26T15:48:55.839Z,15.55
2023-03-26T15:52:08.464Z,15.05
2023-03-26T15:55:16.705Z,16.70
2023-03-26T15:58:28.899Z,11.85
2023-03-26T16:02:05.139Z,17.48
2023-03-26T16:05:23.354Z,13.18
2023-03-26T16:08:54.166Z,16.40
2023-03-26T16:12:04.301Z,22.63
2023-03-26T16:15:29.904Z,19.17
2023-03-26T16:18:37.357Z,20.80
2023-03-26T16:21:54.800Z,17.58
2023-03-26T16:25:30.669Z,13.15
2023-03-26T16:28:57.817Z,6.88
2023-03-26T16:32:29.170Z,10.55
2023-03-26T16:36:03.518Z,9.63
2023-03-26T16:39:11.855Z,10.07
2023-03-26T16:42:20.020Z,8.25
2023-03-26T16:45:37.443Z,4.70
2023-03-26T16:49:14.777Z,7.72
2023-03-26T16:52:34.983Z,4.30
2023-03-26T16:55:47.348Z,5.70
2023-03-26T16:59:00.611Z,5.43
2023-03-26T17:02:24.973Z,7.93
2023-03-26T17:05:36.905Z,5.28
2023-03-26T17:08:53.516Z,9.70
2023-03-26T17:12:01.727Z,7.63
2023-03-26T17:15:20.152Z,15.93
2023-03-26T17:18:26.053Z,6.15
2023-03-26T17:21:45.803Z,6.13
2023-03-26T17:25:24.881Z,10.27
2023-03-26T17:29:05.165Z,8.80
2023-03-26T17:32:15.394Z,7.40
2023-03-26T17:35:39.305Z,13.00
2023-03-26T17:38:47.497Z,8.05
2023-03-26T17:42:01.266Z,6.88
2023-03-26T17:45:17.940Z,4.68
2023-03-26T17:48:26.399Z,7.40
2023-03-26T17:51:59.706Z,7.28
2023-03-26T17:55:11.003Z,6.55
2023-03-26T17:58:39.778Z,8.10
2023-03-26T18:01:48.733Z,3.17
2023-03-26T18:04:55.963Z,4.43
2023-03-26T18:08:26.360Z,5.07
2023-03-26T18:11:43.447Z,9.23
2023-03-26T18:14:48.778Z,6.50
2023-03-26T18:18:07.997Z,4.30
2023-03-26T18:21:27.312Z,7.03
2023-03-26T18:24:37.986Z,4.32
2023-03-26T18:27:43.795Z,2.87
2023-03-26T18:30:49.662Z,2.80
2023-03-26T18:33:59.435Z,2.08
2023-03-26T18:37:19.795Z,1.70
2023-03-26T18:40:40.535Z,1.55
2023-03-26T18:43:46.161Z,1.73
2023-03-26T18:46:55.438Z,3.45
2023-03-26T18:50:01.141Z,4.82
2023-03-26T18:53:30.026Z,3.88
2023-03-26T18:56:37.563Z,2.08
2023-03-26T18:59:45.711Z,2.42
2023-03-26T19:03:07.464Z,3.17
2023-03-26T19:06:15.331Z,3.40
2023-03-26T19:09:31.030Z,4.63
2023-03-26T19:12:38.982Z,4.00
2023-03-26T19:15:46.910Z,3.67
2023-03-26T19:18:53.059Z,3.33
2023-03-26T19:21:59.622Z,6.10
2023-03-26T19:25:06.030Z,4.82
2023-03-26T19:28:19.035Z,4.50
2023-03-26T19:31:27.416Z,5.47
2023-03-26T19:34:38.754Z,6.60
2023-03-26T19:37:54.579Z,6.25
2023-03-26T19:41:00.087Z,6.47
2023-03-26T19:44:25.134Z,6.43
2023-03-26T19:47:49.968Z,12.10
2023-03-26T19:51:05.656Z,7.28
2023-03-26T19:54:17.351Z,6.03
2023-03-26T19:57:23.817Z,6.95
2023-03-26T20:00:29.251Z,12.20
2023-03-26T20:03:43.395Z,6.28
2023-03-26T20:06:49.698Z,8.45
2023-03-26T20:09:55.229Z,10.30
2023-03-26T20:13:01.355Z,9.18
2023-03-26T20:16:16.204Z,9.63
2023-03-26T20:19:25.380Z,8.93
2023-03-26T20:22:31.517Z,9.10
2023-03-26T20:25:46.647Z,10.90
2023-03-26T20:28:53.456Z,9.57
2023-03-26T20:31:59.428Z,9.55
2023-03-26T20:35:35.583Z,10.38
2023-03-26T20:38:44.129Z,10.60
2023-03-26T20:41:50.276Z,14.60
2023-03-26T20:44:56.792Z,12.05
2023-03-26T20:48:02.979Z,16.52
2023-03-26T20:51:13.002Z,9.25
2023-03-26T20:54:22.024Z,10.15
2023-03-26T20:57:27.574Z,11.52
2023-03-26T21:00:33.403Z,11.00
